Terminal Aerodrome Forecast
Issued by NWS Grand Forks, ND

Home | Current Version | Previous Version | Text Only | Print | Product List | Glossary Off
Versions: 1 2 3 4 5 6 7 8 9 10 11 12 13 14 15 16 17 18 19

000
FTUS43 KFGF 280300 AAA
TAFGFK
TAF AMD
KGFK 280354Z 2804/2824 36011KT P6SM OVC040
      TEMPO 2804/2805 3SM -SN BR OVC015
     FM280500 31008KT P6SM BKN025
     FM280900 34011KT P6SM SCT250=

USA.gov is the U.S. government's official web portal to all federal, state and local government web resources and services.